sensor_id;sensor_type;location;lat;lon;timestamp;pressure;altitude;pressure_sealevel;temperature;humidity
6387;BME280;3226;42.162;24.756;2023-11-21T00:00:08;99489.91;;;8.64;71.10
6387;BME280;3226;42.162;24.756;2023-11-21T00:02:39;99499.19;;;8.68;70.51
6387;BME280;3226;42.162;24.756;2023-11-21T00:05:08;99499.19;;;8.68;70.06
6387;BME280;3226;42.162;24.756;2023-11-21T00:07:37;99470.75;;;8.30;70.43
6387;BME280;3226;42.162;24.756;2023-11-21T00:10:05;99499.41;;;8.65;70.74
6387;BME280;3226;42.162;24.756;2023-11-21T00:12:37;99492.41;;;8.66;70.24
6387;BME280;3226;42.162;24.756;2023-11-21T00:15:06;99506.19;;;8.68;69.09
6387;BME280;3226;42.162;24.756;2023-11-21T00:17:36;99492.78;;;8.73;68.85
6387;BME280;3226;42.162;24.756;2023-11-21T00:20:06;99498.09;;;8.71;69.01
6387;BME280;3226;42.162;24.756;2023-11-21T00:22:35;99508.06;;;8.77;68.70
6387;BME280;3226;42.162;24.756;2023-11-21T00:25:04;99464.97;;;8.49;69.32
6387;BME280;3226;42.162;24.756;2023-11-21T00:27:32;99495.63;;;8.70;70.21
6387;BME280;3226;42.162;24.756;2023-11-21T00:30:04;99495.13;;;8.53;70.75
6387;BME280;3226;42.162;24.756;2023-11-21T00:32:33;99497.28;;;8.12;71.63
6387;BME280;3226;42.162;24.756;2023-11-21T00:35:01;99499.34;;;7.60;73.95
6387;BME280;3226;42.162;24.756;2023-11-21T00:37:29;99487.34;;;7.46;74.92
6387;BME280;3226;42.162;24.756;2023-11-21T00:39:58;99495.53;;;7.52;74.93
6387;BME280;3226;42.162;24.756;2023-11-21T00:42:27;99494.75;;;7.39;75.62
6387;BME280;3226;42.162;24.756;2023-11-21T00:44:55;99492.50;;;7.21;76.95
6387;BME280;3226;42.162;24.756;2023-11-21T00:47:24;99499.97;;;7.02;78.74
6387;BME280;3226;42.162;24.756;2023-11-21T00:49:53;99464.75;;;6.46;81.02
6387;BME280;3226;42.162;24.756;2023-11-21T00:52:21;99497.03;;;6.56;81.76
6387;BME280;3226;42.162;24.756;2023-11-21T00:54:49;99493.78;;;6.27;82.69
6387;BME280;3226;42.162;24.756;2023-11-21T00:57:17;99495.44;;;6.28;82.93
6387;BME280;3226;42.162;24.756;2023-11-21T00:59:45;99504.09;;;6.54;82.05
6387;BME280;3226;42.162;24.756;2023-11-21T01:02:13;99478.09;;;6.28;83.18
6387;BME280;3226;42.162;24.756;2023-11-21T01:04:43;99499.00;;;6.40;83.97
6387;BME280;3226;42.162;24.756;2023-11-21T01:07:11;99496.38;;;6.40;83.13
6387;BME280;3226;42.162;24.756;2023-11-21T01:09:40;99489.94;;;6.32;83.73
6387;BME280;3226;42.162;24.756;2023-11-21T01:12:08;99493.34;;;6.33;85.31
6387;BME280;3226;42.162;24.756;2023-11-21T01:14:36;99499.72;;;6.42;84.72
6387;BME280;3226;42.162;24.756;2023-11-21T01:17:04;99499.50;;;6.32;84.72
6387;BME280;3226;42.162;24.756;2023-11-21T01:19:33;99505.25;;;6.37;84.54
6387;BME280;3226;42.162;24.756;2023-11-21T01:22:02;99497.63;;;6.47;83.33
6387;BME280;3226;42.162;24.756;2023-11-21T01:24:31;99491.69;;;6.32;83.99
6387;BME280;3226;42.162;24.756;2023-11-21T01:26:59;99493.91;;;6.38;84.20
6387;BME280;3226;42.162;24.756;2023-11-21T01:29:27;99489.72;;;6.35;84.32
6387;BME280;3226;42.162;24.756;2023-11-21T01:31:55;99482.22;;;6.44;83.61
6387;BME280;3226;42.162;24.756;2023-11-21T01:34:24;99486.41;;;6.46;84.18
6387;BME280;3226;42.162;24.756;2023-11-21T01:36:52;99481.41;;;6.30;83.94
6387;BME280;3226;42.162;24.756;2023-11-21T01:39:22;99495.97;;;6.20;84.71
6387;BME280;3226;42.162;24.756;2023-11-21T01:41:51;99493.69;;;6.28;85.09
6387;BME280;3226;42.162;24.756;2023-11-21T01:44:19;99502.81;;;6.08;86.40
6387;BME280;3226;42.162;24.756;2023-11-21T01:46:48;99486.13;;;5.85;87.42
6387;BME280;3226;42.162;24.756;2023-11-21T01:49:16;99485.56;;;5.79;87.33
6387;BME280;3226;42.162;24.756;2023-11-21T01:51:47;99451.00;;;5.52;87.47
6387;BME280;3226;42.162;24.756;2023-11-21T01:54:17;99473.06;;;5.44;88.94
6387;BME280;3226;42.162;24.756;2023-11-21T01:56:48;99475.94;;;5.27;89.94
6387;BME280;3226;42.162;24.756;2023-11-21T01:59:19;99486.59;;;5.22;91.49
6387;BME280;3226;42.162;24.756;2023-11-21T02:01:48;99477.59;;;5.28;90.62
6387;BME280;3226;42.162;24.756;2023-11-21T02:04:18;99483.59;;;5.01;91.41
6387;BME280;3226;42.162;24.756;2023-11-21T02:06:46;99491.53;;;5.12;92.21
6387;BME280;3226;42.162;24.756;2023-11-21T02:09:15;99452.63;;;4.98;91.74
6387;BME280;3226;42.162;24.756;2023-11-21T02:11:44;99473.03;;;4.89;93.40
6387;BME280;3226;42.162;24.756;2023-11-21T02:14:13;99476.38;;;4.91;94.12
6387;BME280;3226;42.162;24.756;2023-11-21T02:16:41;99477.72;;;5.12;92.36
6387;BME280;3226;42.162;24.756;2023-11-21T02:19:17;99480.59;;;5.07;92.82
6387;BME280;3226;42.162;24.756;2023-11-21T02:21:46;99476.94;;;4.82;95.35
6387;BME280;3226;42.162;24.756;2023-11-21T02:24:18;99481.94;;;4.85;95.35
6387;BME280;3226;42.162;24.756;2023-11-21T02:26:47;99490.84;;;4.81;95.14
6387;BME280;3226;42.162;24.756;2023-11-21T02:29:15;99493.00;;;4.60;96.10
6387;BME280;3226;42.162;24.756;2023-11-21T02:31:46;99448.81;;;4.47;96.27
6387;BME280;3226;42.162;24.756;2023-11-21T02:34:15;99501.75;;;4.72;95.92
6387;BME280;3226;42.162;24.756;2023-11-21T02:36:44;99486.09;;;4.59;96.94
6387;BME280;3226;42.162;24.756;2023-11-21T02:39:12;99453.50;;;4.40;97.41
6387;BME280;3226;42.162;24.756;2023-11-21T02:41:43;99481.28;;;4.53;97.98
6387;BME280;3226;42.162;24.756;2023-11-21T02:44:11;99487.31;;;4.68;97.41
6387;BME280;3226;42.162;24.756;2023-11-21T02:46:39;99484.44;;;4.43;98.24
6387;BME280;3226;42.162;24.756;2023-11-21T02:49:07;99490.75;;;4.68;98.04
6387;BME280;3226;42.162;24.756;2023-11-21T02:51:36;99492.16;;;4.59;99.10
6387;BME280;3226;42.162;24.756;2023-11-21T02:54:06;99488.53;;;4.62;98.75
6387;BME280;3226;42.162;24.756;2023-11-21T02:56:35;99471.47;;;4.43;99.00
6387;BME280;3226;42.162;24.756;2023-11-21T02:59:05;99495.66;;;4.73;98.35
6387;BME280;3226;42.162;24.756;2023-11-21T03:01:33;99487.69;;;4.76;98.29
6387;BME280;3226;42.162;24.756;2023-11-21T03:04:02;99493.72;;;4.76;98.19
6387;BME280;3226;42.162;24.756;2023-11-21T03:06:30;99496.56;;;4.72;96.93
6387;BME280;3226;42.162;24.756;2023-11-21T03:08:58;99494.66;;;4.61;97.07
6387;BME280;3226;42.162;24.756;2023-11-21T03:11:26;99490.19;;;4.77;96.39
6387;BME280;3226;42.162;24.756;2023-11-21T03:13:54;99496.94;;;4.95;96.44
6387;BME280;3226;42.162;24.756;2023-11-21T03:16:24;99488.72;;;4.73;97.59
6387;BME280;3226;42.162;24.756;2023-11-21T03:18:52;99498.44;;;4.84;97.59
6387;BME280;3226;42.162;24.756;2023-11-21T03:21:21;99496.66;;;4.85;97.16
6387;BME280;3226;42.162;24.756;2023-11-21T03:23:49;99509.22;;;4.78;98.01
6387;BME280;3226;42.162;24.756;2023-11-21T03:26:17;99493.53;;;4.80;98.27
6387;BME280;3226;42.162;24.756;2023-11-21T03:28:45;99497.69;;;4.68;99.54
6387;BME280;3226;42.162;24.756;2023-11-21T03:31:14;99489.25;;;4.78;99.82
6387;BME280;3226;42.162;24.756;2023-11-21T03:33:45;99490.47;;;4.87;99.55
6387;BME280;3226;42.162;24.756;2023-11-21T03:36:14;99466.91;;;4.76;98.37
6387;BME280;3226;42.162;24.756;2023-11-21T03:38:42;99498.41;;;5.13;96.85
6387;BME280;3226;42.162;24.756;2023-11-21T03:41:11;99492.88;;;4.90;97.26
6387;BME280;3226;42.162;24.756;2023-11-21T03:43:39;99498.72;;;4.80;99.93
6387;BME280;3226;42.162;24.756;2023-11-21T03:46:08;99462.66;;;4.75;99.14
6387;BME280;3226;42.162;24.756;2023-11-21T03:48:37;99501.03;;;4.70;99.24
6387;BME280;3226;42.162;24.756;2023-11-21T03:51:07;99503.16;;;4.77;99.86
6387;BME280;3226;42.162;24.756;2023-11-21T03:53:35;99498.53;;;4.83;100.00
6387;BME280;3226;42.162;24.756;2023-11-21T03:56:04;99496.22;;;4.78;100.00
6387;BME280;3226;42.162;24.756;2023-11-21T03:58:32;99494.72;;;4.88;99.72
6387;BME280;3226;42.162;24.756;2023-11-21T04:01:01;99506.41;;;4.96;99.81
6387;BME280;3226;42.162;24.756;2023-11-21T04:03:30;99449.97;;;4.56;99.41
6387;BME280;3226;42.162;24.756;2023-11-21T04:05:58;99515.84;;;4.97;99.28
6387;BME280;3226;42.162;24.756;2023-11-21T04:08:29;99512.91;;;4.88;99.43
6387;BME280;3226;42.162;24.756;2023-11-21T04:10:57;99505.50;;;4.82;99.05
6387;BME280;3226;42.162;24.756;2023-11-21T04:13:25;99499.84;;;4.61;99.58
6387;BME280;3226;42.162;24.756;2023-11-21T04:15:53;99496.94;;;4.37;100.00
6387;BME280;3226;42.162;24.756;2023-11-21T04:18:22;99513.34;;;4.52;100.00
6387;BME280;3226;42.162;24.756;2023-11-21T04:20:50;99510.00;;;4.35;100.00
6387;BME280;3226;42.162;24.756;2023-11-21T04:23:18;99509.22;;;4.18;99.63
6387;BME280;3226;42.162;24.756;2023-11-21T04:25:48;99501.25;;;4.07;100.00
6387;BME280;3226;42.162;24.756;2023-11-21T04:28:16;99495.84;;;3.96;100.00
6387;BME280;3226;42.162;24.756;2023-11-21T04:30:45;99494.44;;;3.90;100.00
6387;BME280;3226;42.162;24.756;2023-11-21T04:33:13;99530.72;;;3.90;100.00
6387;BME280;3226;42.162;24.756;2023-11-21T04:35:41;99532.66;;;3.70;100.00
6387;BME280;3226;42.162;24.756;2023-11-21T04:38:10;99536.50;;;3.63;100.00
6387;BME280;3226;42.162;24.756;2023-11-21T04:40:38;99511.13;;;3.54;100.00
6387;BME280;3226;42.162;24.756;2023-11-21T04:43:07;99508.47;;;3.55;100.00
6387;BME280;3226;42.162;24.756;2023-11-21T04:45:35;99521.00;;;3.47;100.00
6387;BME280;3226;42.162;24.756;2023-11-21T04:48:04;99524.66;;;3.43;100.00
6387;BME280;3226;42.162;24.756;2023-11-21T04:50:33;99517.66;;;3.13;100.00
6387;BME280;3226;42.162;24.756;2023-11-21T04:53:01;99519.22;;;2.99;100.00
6387;BME280;3226;42.162;24.756;2023-11-21T04:55:29;99471.13;;;2.63;100.00
6387;BME280;3226;42.162;24.756;2023-11-21T04:57:58;99533.13;;;3.30;100.00
6387;BME280;3226;42.162;24.756;2023-11-21T05:00:27;99531.34;;;3.31;100.00
6387;BME280;3226;42.162;24.756;2023-11-21T05:02:55;99515.91;;;2.97;100.00
6387;BME280;3226;42.162;24.756;2023-11-21T05:05:24;99522.34;;;3.06;100.00
6387;BME280;3226;42.162;24.756;2023-11-21T05:07:52;99508.00;;;2.83;100.00
6387;BME280;3226;42.162;24.756;2023-11-21T05:10:20;99471.16;;;2.45;100.00
6387;BME280;3226;42.162;24.756;2023-11-21T05:12:49;99511.59;;;2.80;100.00
6387;BME280;3226;42.162;24.756;2023-11-21T05:15:17;99515.63;;;2.86;100.00
6387;BME280;3226;42.162;24.756;2023-11-21T05:17:47;99536.31;;;2.86;100.00
6387;BME280;3226;42.162;24.756;2023-11-21T05:20:16;99526.31;;;2.96;100.00
6387;BME280;3226;42.162;24.756;2023-11-21T05:22:47;99529.09;;;3.09;100.00
6387;BME280;3226;42.162;24.756;2023-11-21T05:25:16;99541.63;;;3.16;100.00
6387;BME280;3226;42.162;24.756;2023-11-21T05:27:45;99534.78;;;3.15;100.00
6387;BME280;3226;42.162;24.756;2023-11-21T05:30:14;99541.09;;;3.10;100.00
6387;BME280;3226;42.162;24.756;2023-11-21T05:32:42;99540.19;;;3.11;100.00
6387;BME280;3226;42.162;24.756;2023-11-21T05:35:12;99536.00;;;2.92;100.00
6387;BME280;3226;42.162;24.756;2023-11-21T05:37:44;99534.94;;;2.79;100.00
6387;BME280;3226;42.162;24.756;2023-11-21T05:40:13;99538.09;;;3.01;100.00
6387;BME280;3226;42.162;24.756;2023-11-21T05:42:41;99536.59;;;2.97;100.00
6387;BME280;3226;42.162;24.756;2023-11-21T05:45:11;99540.28;;;3.09;100.00
6387;BME280;3226;42.162;24.756;2023-11-21T05:47:41;99538.81;;;2.87;100.00
6387;BME280;3226;42.162;24.756;2023-11-21T05:50:12;99513.88;;;2.86;100.00
6387;BME280;3226;42.162;24.756;2023-11-21T05:52:44;99504.75;;;2.79;100.00
6387;BME280;3226;42.162;24.756;2023-11-21T05:55:13;99544.13;;;3.02;100.00
6387;BME280;3226;42.162;24.756;2023-11-21T05:57:43;99536.63;;;3.13;100.00
6387;BME280;3226;42.162;24.756;2023-11-21T06:00:13;99526.25;;;2.97;100.00
6387;BME280;3226;42.162;24.756;2023-11-21T06:02:49;99517.63;;;2.97;100.00
6387;BME280;3226;42.162;24.756;2023-11-21T06:05:23;99533.28;;;3.11;100.00
6387;BME280;3226;42.162;24.756;2023-11-21T06:07:53;99543.38;;;3.32;100.00
6387;BME280;3226;42.162;24.756;2023-11-21T06:10:23;99545.47;;;3.41;100.00
6387;BME280;3226;42.162;24.756;2023-11-21T06:12:52;99546.88;;;3.47;100.00
6387;BME280;3226;42.162;24.756;2023-11-21T06:15:21;99551.25;;;3.46;100.00
6387;BME280;3226;42.162;24.756;2023-11-21T06:17:51;99524.09;;;3.54;100.00
6387;BME280;3226;42.162;24.756;2023-11-21T06:20:22;99550.47;;;3.76;100.00
6387;BME280;3226;42.162;24.756;2023-11-21T06:22:51;99555.38;;;3.81;100.00
6387;BME280;3226;42.162;24.756;2023-11-21T06:25:20;99549.38;;;3.81;100.00
6387;BME280;3226;42.162;24.756;2023-11-21T06:27:50;99514.06;;;3.64;100.00
6387;BME280;3226;42.162;24.756;2023-11-21T06:30:20;99556.63;;;3.90;100.00
6387;BME280;3226;42.162;24.756;2023-11-21T06:32:50;99553.97;;;3.92;100.00
6387;BME280;3226;42.162;24.756;2023-11-21T06:35:19;99500.59;;;3.57;100.00
6387;BME280;3226;42.162;24.756;2023-11-21T06:37:49;99556.69;;;3.88;100.00
6387;BME280;3226;42.162;24.756;2023-11-21T06:40:19;99547.69;;;3.96;100.00
6387;BME280;3226;42.162;24.756;2023-11-21T06:42:48;99551.59;;;4.03;100.00
6387;BME280;3226;42.162;24.756;2023-11-21T06:45:17;99537.03;;;4.00;100.00
6387;BME280;3226;42.162;24.756;2023-11-21T06:47:45;99554.78;;;4.23;99.80
6387;BME280;3226;42.162;24.756;2023-11-21T06:50:14;99532.31;;;3.93;100.00
6387;BME280;3226;42.162;24.756;2023-11-21T06:52:42;99544.06;;;3.98;100.00
6387;BME280;3226;42.162;24.756;2023-11-21T06:55:12;99549.06;;;4.01;100.00
6387;BME280;3226;42.162;24.756;2023-11-21T06:57:41;99542.03;;;4.03;100.00
6387;BME280;3226;42.162;24.756;2023-11-21T07:00:10;99544.69;;;4.18;100.00
6387;BME280;3226;42.162;24.756;2023-11-21T07:02:39;99549.59;;;4.23;100.00
6387;BME280;3226;42.162;24.756;2023-11-21T07:05:07;99508.81;;;3.96;100.00
6387;BME280;3226;42.162;24.756;2023-11-21T07:07:36;99525.69;;;4.17;100.00
6387;BME280;3226;42.162;24.756;2023-11-21T07:10:06;99500.75;;;4.31;99.16
6387;BME280;3226;42.162;24.756;2023-11-21T07:12:35;99562.56;;;4.82;97.30
6387;BME280;3226;42.162;24.756;2023-11-21T07:15:05;99523.91;;;4.48;96.57
6387;BME280;3226;42.162;24.756;2023-11-21T07:17:36;99557.00;;;4.74;97.12
6387;BME280;3226;42.162;24.756;2023-11-21T07:20:08;99561.53;;;4.70;96.22
6387;BME280;3226;42.162;24.756;2023-11-21T07:22:38;99554.97;;;4.79;96.84
6387;BME280;3226;42.162;24.756;2023-11-21T07:25:07;99555.53;;;5.13;95.03
6387;BME280;3226;42.162;24.756;2023-11-21T07:27:37;99563.47;;;5.10;95.08
6387;BME280;3226;42.162;24.756;2023-11-21T07:30:07;99558.28;;;5.10;94.36
6387;BME280;3226;42.162;24.756;2023-11-21T07:32:37;99546.44;;;5.20;93.58
6387;BME280;3226;42.162;24.756;2023-11-21T07:35:08;99534.59;;;5.29;93.32
6387;BME280;3226;42.162;24.756;2023-11-21T07:37:37;99553.44;;;5.33;93.92
6387;BME280;3226;42.162;24.756;2023-11-21T07:40:06;99548.50;;;5.43;93.26
6387;BME280;3226;42.162;24.756;2023-11-21T07:42:39;99556.38;;;5.41;94.56
6387;BME280;3226;42.162;24.756;2023-11-21T07:45:09;99550.50;;;5.67;94.81
6387;BME280;3226;42.162;24.756;2023-11-21T07:47:39;99555.03;;;5.90;92.63
6387;BME280;3226;42.162;24.756;2023-11-21T07:50:08;99370.38;;;4.85;90.89
6387;BME280;3226;42.162;24.756;2023-11-21T07:52:37;99561.16;;;6.17;89.85
6387;BME280;3226;42.162;24.756;2023-11-21T07:55:06;99502.63;;;6.11;88.41
6387;BME280;3226;42.162;24.756;2023-11-21T07:57:35;99555.31;;;6.67;87.18
6387;BME280;3226;42.162;24.756;2023-11-21T08:00:06;99557.06;;;6.66;85.88
6387;BME280;3226;42.162;24.756;2023-11-21T08:02:36;99559.34;;;6.71;84.62
6387;BME280;3226;42.162;24.756;2023-11-21T08:05:05;99557.47;;;6.86;84.60
6387;BME280;3226;42.162;24.756;2023-11-21T08:07:41;99502.41;;;6.53;83.66
6387;BME280;3226;42.162;24.756;2023-11-21T08:10:09;99554.44;;;7.05;82.43
6387;BME280;3226;42.162;24.756;2023-11-21T08:12:38;99526.75;;;6.78;83.48
6387;BME280;3226;42.162;24.756;2023-11-21T08:15:09;99554.53;;;7.03;83.85
6387;BME280;3226;42.162;24.756;2023-11-21T08:17:37;99540.34;;;7.20;81.61
6387;BME280;3226;42.162;24.756;2023-11-21T08:20:06;99344.19;;;5.95;79.98
6387;BME280;3226;42.162;24.756;2023-11-21T08:22:37;99553.97;;;7.37;79.31
6387;BME280;3226;42.162;24.756;2023-11-21T08:25:08;99557.69;;;7.46;78.59
6387;BME280;3226;42.162;24.756;2023-11-21T08:27:37;99556.13;;;7.67;78.38
6387;BME280;3226;42.162;24.756;2023-11-21T08:30:07;99546.63;;;7.91;77.42
6387;BME280;3226;42.162;24.756;2023-11-21T08:32:36;99546.81;;;8.01;76.27
6387;BME280;3226;42.162;24.756;2023-11-21T08:35:04;99491.84;;;7.79;75.58
6387;BME280;3226;42.162;24.756;2023-11-21T08:37:33;99493.00;;;8.00;74.10
6387;BME280;3226;42.162;24.756;2023-11-21T08:40:05;99541.59;;;8.48;73.45
6387;BME280;3226;42.162;24.756;2023-11-21T08:42:35;99522.00;;;8.42;71.44
6387;BME280;3226;42.162;24.756;2023-11-21T08:45:05;99540.13;;;8.68;71.20
6387;BME280;3226;42.162;24.756;2023-11-21T08:47:37;99513.88;;;8.58;70.12
6387;BME280;3226;42.162;24.756;2023-11-21T08:50:06;99535.41;;;8.85;69.44
6387;BME280;3226;42.162;24.756;2023-11-21T08:52:35;99524.09;;;9.07;68.73
6387;BME280;3226;42.162;24.756;2023-11-21T08:55:04;99522.09;;;8.99;67.60
6387;BME280;3226;42.162;24.756;2023-11-21T08:57:34;99507.69;;;9.16;67.73
6387;BME280;3226;42.162;24.756;2023-11-21T09:00:03;99503.41;;;9.26;68.97
6387;BME280;3226;42.162;24.756;2023-11-21T09:02:35;99456.66;;;9.01;69.88
6387;BME280;3226;42.162;24.756;2023-11-21T09:05:06;99498.94;;;9.50;69.32
6387;BME280;3226;42.162;24.756;2023-11-21T09:07:34;99496.88;;;9.65;69.17
6387;BME280;3226;42.162;24.756;2023-11-21T09:10:02;99498.50;;;9.77;68.31
6387;BME280;3226;42.162;24.756;2023-11-21T09:12:32;99487.97;;;9.89;66.90
6387;BME280;3226;42.162;24.756;2023-11-21T09:15:02;99484.25;;;9.70;65.01
6387;BME280;3226;42.162;24.756;2023-11-21T09:17:31;99484.22;;;9.81;65.24
6387;BME280;3226;42.162;24.756;2023-11-21T09:20:00;99487.00;;;9.68;65.22
6387;BME280;3226;42.162;24.756;2023-11-21T09:22:31;99483.19;;;9.73;65.65
6387;BME280;3226;42.162;24.756;2023-11-21T09:25:00;99460.00;;;9.68;64.95
6387;BME280;3226;42.162;24.756;2023-11-21T09:27:32;99475.69;;;10.01;64.71
6387;BME280;3226;42.162;24.756;2023-11-21T09:30:00;99471.97;;;10.03;63.32
6387;BME280;3226;42.162;24.756;2023-11-21T09:32:28;99465.31;;;9.99;63.72
6387;BME280;3226;42.162;24.756;2023-11-21T09:34:56;99460.53;;;10.04;62.96
6387;BME280;3226;42.162;24.756;2023-11-21T09:37:25;99448.75;;;10.10;63.35
6387;BME280;3226;42.162;24.756;2023-11-21T09:39:55;99447.25;;;10.17;62.78
6387;BME280;3226;42.162;24.756;2023-11-21T09:42:39;99440.84;;;10.31;62.74
6387;BME280;3226;42.162;24.756;2023-11-21T09:45:15;99452.09;;;10.43;63.25
6387;BME280;3226;42.162;24.756;2023-11-21T09:47:46;99421.56;;;10.32;62.68
6387;BME280;3226;42.162;24.756;2023-11-21T09:50:17;99456.28;;;10.46;63.29
6387;BME280;3226;42.162;24.756;2023-11-21T09:52:57;99418.66;;;10.47;63.16
6387;BME280;3226;42.162;24.756;2023-11-21T09:55:29;99436.94;;;10.78;62.00
6387;BME280;3226;42.162;24.756;2023-11-21T09:58:03;99430.50;;;10.82;62.61
6387;BME280;3226;42.162;24.756;2023-11-21T10:00:35;99428.72;;;10.92;60.63
6387;BME280;3226;42.162;24.756;2023-11-21T10:03:03;99420.69;;;10.84;59.87
6387;BME280;3226;42.162;24.756;2023-11-21T10:05:31;99423.50;;;11.12;59.27
6387;BME280;3226;42.162;24.756;2023-11-21T10:08:04;99416.72;;;10.99;60.31
6387;BME280;3226;42.162;24.756;2023-11-21T10:10:36;99413.31;;;11.28;59.84
6387;BME280;3226;42.162;24.756;2023-11-21T10:13:06;99408.50;;;11.43;58.49
6387;BME280;3226;42.162;24.756;2023-11-21T10:15:34;99389.31;;;11.33;57.34
6387;BME280;3226;42.162;24.756;2023-11-21T10:18:03;99356.31;;;11.21;57.38
6387;BME280;3226;42.162;24.756;2023-11-21T10:20:33;99386.56;;;11.15;58.06
6387;BME280;3226;42.162;24.756;2023-11-21T10:23:01;99377.16;;;11.03;58.25
6387;BME280;3226;42.162;24.756;2023-11-21T10:25:30;99384.75;;;11.16;58.35
6387;BME280;3226;42.162;24.756;2023-11-21T10:28:02;99377.28;;;11.21;58.42
6387;BME280;3226;42.162;24.756;2023-11-21T10:30:32;99380.34;;;11.55;56.47
6387;BME280;3226;42.162;24.756;2023-11-21T10:33:04;99379.09;;;11.50;56.73
6387;BME280;3226;42.162;24.756;2023-11-21T10:35:45;99380.16;;;11.67;55.67
6387;BME280;3226;42.162;24.756;2023-11-21T10:38:18;99373.94;;;11.78;54.52
6387;BME280;3226;42.162;24.756;2023-11-21T10:40:50;99377.16;;;11.62;54.39
6387;BME280;3226;42.162;24.756;2023-11-21T10:43:24;99345.38;;;11.65;54.63
6387;BME280;3226;42.162;24.756;2023-11-21T10:45:57;99365.50;;;11.84;54.65
6387;BME280;3226;42.162;24.756;2023-11-21T10:48:26;99350.63;;;11.75;55.06
6387;BME280;3226;42.162;24.756;2023-11-21T10:50:54;99357.34;;;11.77;54.42
6387;BME280;3226;42.162;24.756;2023-11-21T10:53:23;99355.41;;;11.89;53.62
6387;BME280;3226;42.162;24.756;2023-11-21T10:56:01;99341.59;;;11.87;54.07
6387;BME280;3226;42.162;24.756;2023-11-21T10:58:32;99360.81;;;11.88;54.69
6387;BME280;3226;42.162;24.756;2023-11-21T11:01:01;99348.09;;;11.83;54.97
6387;BME280;3226;42.162;24.756;2023-11-21T11:03:32;99339.56;;;11.81;54.81
6387;BME280;3226;42.162;24.756;2023-11-21T11:06:00;99352.50;;;12.02;55.16
6387;BME280;3226;42.162;24.756;2023-11-21T11:08:29;99340.91;;;12.05;54.73
6387;BME280;3226;42.162;24.756;2023-11-21T11:10:58;99333.94;;;12.13;54.70
6387;BME280;3226;42.162;24.756;2023-11-21T11:13:26;99328.16;;;12.00;54.77
6387;BME280;3226;42.162;24.756;2023-11-21T11:15:58;99328.44;;;11.97;54.40
6387;BME280;3226;42.162;24.756;2023-11-21T11:18:28;99323.78;;;11.91;54.05
6387;BME280;3226;42.162;24.756;2023-11-21T11:21:01;99316.44;;;11.94;53.70
6387;BME280;3226;42.162;24.756;2023-11-21T11:23:49;99307.97;;;12.10;52.79
6387;BME280;3226;42.162;24.756;2023-11-21T11:26:31;99296.56;;;11.92;53.70
6387;BME280;3226;42.162;24.756;2023-11-21T11:29:08;99292.44;;;11.89;53.70
6387;BME280;3226;42.162;24.756;2023-11-21T11:31:50;99280.84;;;11.92;54.30
6387;BME280;3226;42.162;24.756;2023-11-21T11:34:28;99267.94;;;11.98;54.23
6387;BME280;3226;42.162;24.756;2023-11-21T11:37:00;99219.19;;;11.68;54.43
6387;BME280;3226;42.162;24.756;2023-11-21T11:39:31;99231.06;;;11.72;55.13
6387;BME280;3226;42.162;24.756;2023-11-21T11:42:04;99236.25;;;11.82;54.13
6387;BME280;3226;42.162;24.756;2023-11-21T11:44:51;99221.53;;;11.71;54.57
6387;BME280;3226;42.162;24.756;2023-11-21T11:47:24;99136.03;;;11.22;54.19
6387;BME280;3226;42.162;24.756;2023-11-21T11:50:01;99216.38;;;11.79;54.25
6387;BME280;3226;42.162;24.756;2023-11-21T11:52:35;99229.69;;;11.68;54.57
6387;BME280;3226;42.162;24.756;2023-11-21T11:55:03;99230.19;;;11.81;53.94
6387;BME280;3226;42.162;24.756;2023-11-21T11:57:32;99219.84;;;11.80;54.44
6387;BME280;3226;42.162;24.756;2023-11-21T12:00:12;99183.69;;;11.46;55.50
6387;BME280;3226;42.162;24.756;2023-11-21T12:02:47;99204.91;;;11.52;55.28
6387;BME280;3226;42.162;24.756;2023-11-21T12:05:17;99198.94;;;11.60;55.24
6387;BME280;3226;42.162;24.756;2023-11-21T12:07:48;99207.31;;;11.74;55.19
6387;BME280;3226;42.162;24.756;2023-11-21T12:10:18;99211.44;;;11.76;54.45
6387;BME280;3226;42.162;24.756;2023-11-21T12:12:48;99191.13;;;11.50;55.09
6387;BME280;3226;42.162;24.756;2023-11-21T12:15:16;99213.06;;;11.49;56.06
6387;BME280;3226;42.162;24.756;2023-11-21T12:17:47;99181.00;;;11.27;56.10
6387;BME280;3226;42.162;24.756;2023-11-21T12:20:18;99213.47;;;11.54;56.44
6387;BME280;3226;42.162;24.756;2023-11-21T12:22:48;99204.19;;;11.60;55.92
6387;BME280;3226;42.162;24.756;2023-11-21T12:25:18;99178.41;;;11.55;56.21
6387;BME280;3226;42.162;24.756;2023-11-21T12:27:48;99179.09;;;11.57;56.06
6387;BME280;3226;42.162;24.756;2023-11-21T12:30:18;99213.28;;;11.66;56.21
6387;BME280;3226;42.162;24.756;2023-11-21T12:32:51;99218.63;;;11.74;56.02
6387;BME280;3226;42.162;24.756;2023-11-21T12:35:24;99231.81;;;11.82;55.39
6387;BME280;3226;42.162;24.756;2023-11-21T12:37:54;99222.94;;;11.93;54.93
6387;BME280;3226;42.162;24.756;2023-11-21T12:40:24;99212.44;;;11.93;55.42
6387;BME280;3226;42.162;24.756;2023-11-21T12:42:55;99212.28;;;11.77;55.91
6387;BME280;3226;42.162;24.756;2023-11-21T12:45:25;99202.97;;;11.82;55.38
6387;BME280;3226;42.162;24.756;2023-11-21T12:47:57;99210.38;;;11.97;54.81
6387;BME280;3226;42.162;24.756;2023-11-21T12:50:29;99204.34;;;11.86;54.93
6387;BME280;3226;42.162;24.756;2023-11-21T12:53:02;99154.25;;;11.80;54.55
6387;BME280;3226;42.162;24.756;2023-11-21T12:55:32;99188.69;;;11.95;55.06
6387;BME280;3226;42.162;24.756;2023-11-21T12:58:07;99176.53;;;12.04;54.95
6387;BME280;3226;42.162;24.756;2023-11-21T13:00:39;99186.38;;;11.92;55.69
6387;BME280;3226;42.162;24.756;2023-11-21T13:03:11;99180.00;;;11.94;55.96
6387;BME280;3226;42.162;24.756;2023-11-21T13:05:46;99184.56;;;11.92;56.44
6387;BME280;3226;42.162;24.756;2023-11-21T13:08:18;99166.16;;;11.74;56.40
6387;BME280;3226;42.162;24.756;2023-11-21T13:10:52;99190.66;;;11.93;56.13
6387;BME280;3226;42.162;24.756;2023-11-21T13:13:23;99189.38;;;11.97;56.07
6387;BME280;3226;42.162;24.756;2023-11-21T13:15:53;99185.75;;;11.80;57.01
6387;BME280;3226;42.162;24.756;2023-11-21T13:18:25;99180.19;;;11.83;56.73
6387;BME280;3226;42.162;24.756;2023-11-21T13:20:54;99187.19;;;11.64;57.25
6387;BME280;3226;42.162;24.756;2023-11-21T13:23:24;99182.72;;;11.75;57.52
6387;BME280;3226;42.162;24.756;2023-11-21T13:25:53;99187.69;;;11.78;56.82
6387;BME280;3226;42.162;24.756;2023-11-21T13:28:30;99191.78;;;11.80;56.86
6387;BME280;3226;42.162;24.756;2023-11-21T13:31:01;99198.22;;;11.96;56.41